createdAt,value
2022-07-29T00:02:29.796Z,1.88
2022-07-29T00:04:56.722Z,1.90
2022-07-29T00:07:23.495Z,1.73
2022-07-29T00:09:51.932Z,2.10
2022-07-29T00:12:26.364Z,1.90
2022-07-29T00:14:56.229Z,2.00
2022-07-29T00:17:24.941Z,1.73
2022-07-29T00:19:52.395Z,1.90
2022-07-29T00:22:21.577Z,2.38
2022-07-29T00:24:50.300Z,2.65
2022-07-29T00:27:18.494Z,1.83
2022-07-29T00:29:45.402Z,2.60
2022-07-29T00:32:12.304Z,1.98
2022-07-29T00:34:57.599Z,2.10
2022-07-29T00:37:24.620Z,2.10
2022-07-29T00:39:51.546Z,2.20
2022-07-29T00:42:18.687Z,1.88
2022-07-29T00:44:45.823Z,2.92
2022-07-29T00:47:13.637Z,2.85
2022-07-29T00:49:42.440Z,3.10
2022-07-29T00:52:10.946Z,3.67
2022-07-29T00:54:44.483Z,2.85
2022-07-29T00:57:12.175Z,2.53
2022-07-29T00:59:38.963Z,2.63
2022-07-29T01:02:06.090Z,2.92
2022-07-29T01:04:33.564Z,2.78
2022-07-29T01:07:03.692Z,2.92
2022-07-29T01:09:42.964Z,3.13
2022-07-29T01:12:18.204Z,3.42
2022-07-29T01:14:47.107Z,3.13
2022-07-29T01:17:25.731Z,2.63
2022-07-29T01:20:18.376Z,2.75
2022-07-29T01:23:23.143Z,2.33
2022-07-29T01:26:00.180Z,2.20
2022-07-29T01:28:56.572Z,2.33
2022-07-29T01:31:59.429Z,1.83
2022-07-29T01:34:57.448Z,1.88
2022-07-29T01:37:40.848Z,1.63
2022-07-29T01:40:32.196Z,1.80
2022-07-29T01:43:06.740Z,1.42
2022-07-29T01:45:53.701Z,1.60
2022-07-29T01:48:39.351Z,1.95
2022-07-29T01:51:16.062Z,1.38
2022-07-29T01:53:56.156Z,1.75
2022-07-29T01:56:25.479Z,1.60
2022-07-29T01:58:54.267Z,1.80
2022-07-29T02:01:25.477Z,2.13
2022-07-29T02:03:55.486Z,1.65
2022-07-29T02:06:24.597Z,1.85
2022-07-29T02:08:53.945Z,1.77
2022-07-29T02:11:20.846Z,1.27
2022-07-29T02:13:48.701Z,1.15
2022-07-29T02:16:17.692Z,1.13
2022-07-29T02:18:46.811Z,1.25
2022-07-29T02:21:17.319Z,1.00
2022-07-29T02:23:51.455Z,1.23
2022-07-29T02:26:21.239Z,2.08
2022-07-29T02:28:51.422Z,1.85
2022-07-29T02:31:20.588Z,2.13
2022-07-29T02:33:49.248Z,1.77
2022-07-29T02:36:17.792Z,1.85
2022-07-29T02:38:54.524Z,2.17
2022-07-29T02:41:30.650Z,1.58
2022-07-29T02:44:05.324Z,1.63
2022-07-29T02:46:36.266Z,2.00
2022-07-29T02:49:22.227Z,1.90
2022-07-29T02:52:05.664Z,1.42
2022-07-29T02:54:42.580Z,2.13
2022-07-29T02:57:55.396Z,1.73
2022-07-29T03:00:31.253Z,1.77
2022-07-29T03:03:04.466Z,1.25
2022-07-29T03:05:32.362Z,1.90
2022-07-29T03:08:05.344Z,1.88
2022-07-29T03:10:33.598Z,1.90
2022-07-29T03:13:02.034Z,1.50
2022-07-29T03:15:29.607Z,1.52
2022-07-29T03:17:56.959Z,2.17
2022-07-29T03:20:25.685Z,1.75
2022-07-29T03:22:52.586Z,1.70
2022-07-29T03:25:22.289Z,2.05
2022-07-29T03:27:49.830Z,1.67
2022-07-29T03:30:20.981Z,2.58
2022-07-29T03:32:52.169Z,1.97
2022-07-29T03:35:20.722Z,2.42
2022-07-29T03:37:47.956Z,2.55
2022-07-29T03:40:21.542Z,2.58
2022-07-29T03:42:51.165Z,3.22
2022-07-29T03:45:20.232Z,2.75
2022-07-29T03:48:00.312Z,3.17
2022-07-29T03:50:30.302Z,3.53
2022-07-29T03:52:57.352Z,2.80
2022-07-29T03:55:24.825Z,3.30
2022-07-29T03:57:52.294Z,3.28
2022-07-29T04:00:20.570Z,2.95
2022-07-29T04:02:50.095Z,3.17
2022-07-29T04:05:18.525Z,3.28
2022-07-29T04:07:46.824Z,2.88
2022-07-29T04:10:14.446Z,3.90
2022-07-29T04:12:41.277Z,3.80
2022-07-29T04:15:09.492Z,3.53
2022-07-29T04:17:36.427Z,3.45
2022-07-29T04:20:04.485Z,3.38
2022-07-29T04:22:31.832Z,3.15
2022-07-29T04:25:03.546Z,3.17
2022-07-29T04:27:30.903Z,3.37
2022-07-29T04:29:57.745Z,4.57
2022-07-29T04:32:26.040Z,4.43
2022-07-29T04:34:52.840Z,4.22
2022-07-29T04:37:20.105Z,3.33
2022-07-29T04:39:46.999Z,3.90
2022-07-29T04:42:13.793Z,4.03
2022-07-29T04:44:43.130Z,3.50
2022-07-29T04:47:10.568Z,3.72
2022-07-29T04:49:40.636Z,3.03
2022-07-29T04:52:08.137Z,3.70
2022-07-29T04:54:34.960Z,3.88
2022-07-29T04:57:01.746Z,3.63
2022-07-29T04:59:28.623Z,3.45
2022-07-29T05:01:55.425Z,3.97
2022-07-29T05:04:22.254Z,3.17
2022-07-29T05:06:49.366Z,4.80
2022-07-29T05:09:16.270Z,3.67
2022-07-29T05:11:43.061Z,3.55
2022-07-29T05:14:10.008Z,3.55
2022-07-29T05:16:36.870Z,4.10
2022-07-29T05:19:04.016Z,3.13
2022-07-29T05:21:30.870Z,4.05
2022-07-29T05:23:57.662Z,4.10
2022-07-29T05:26:25.406Z,3.90
2022-07-29T05:28:52.242Z,4.10
2022-07-29T05:31:19.101Z,3.00
2022-07-29T05:33:46.219Z,4.07
2022-07-29T05:36:13.089Z,3.72
2022-07-29T05:38:39.867Z,3.30
2022-07-29T05:41:06.866Z,3.58
2022-07-29T05:43:34.015Z,3.65
2022-07-29T05:46:00.997Z,3.72
2022-07-29T05:48:28.334Z,4.22
2022-07-29T05:50:55.768Z,4.30
2022-07-29T05:53:23.041Z,4.50
2022-07-29T05:55:50.030Z,4.05
2022-07-29T05:58:17.424Z,4.55
2022-07-29T06:00:44.525Z,4.18
2022-07-29T06:03:11.985Z,4.68
2022-07-29T06:05:38.828Z,4.85
2022-07-29T06:08:08.342Z,5.25
2022-07-29T06:10:37.824Z,4.47
2022-07-29T06:13:04.694Z,4.28
2022-07-29T06:15:31.488Z,4.53
2022-07-29T06:18:00.141Z,4.72
2022-07-29T06:20:31.473Z,4.53
2022-07-29T06:22:58.889Z,4.05
2022-07-29T06:25:25.697Z,5.13
2022-07-29T06:27:53.605Z,4.72
2022-07-29T06:30:20.654Z,4.43
2022-07-29T06:32:48.281Z,4.43
2022-07-29T06:35:41.229Z,4.35
2022-07-29T06:38:03.717Z,5.75
2022-07-29T06:40:55.162Z,5.10
2022-07-29T06:43:21.965Z,3.90
2022-07-29T06:45:49.649Z,5.05
2022-07-29T06:48:16.474Z,4.05
2022-07-29T06:50:43.375Z,4.38
2022-07-29T06:53:10.196Z,4.70
2022-07-29T06:55:38.075Z,4.13
2022-07-29T06:58:04.829Z,4.63
2022-07-29T07:00:31.760Z,4.25
2022-07-29T07:02:58.582Z,4.47
2022-07-29T07:05:25.409Z,4.38
2022-07-29T07:07:52.201Z,4.05
2022-07-29T07:10:19.670Z,4.13
2022-07-29T07:12:46.504Z,3.90
2022-07-29T07:15:13.336Z,4.38
2022-07-29T07:17:40.161Z,4.55
2022-07-29T07:20:08.258Z,3.55
2022-07-29T07:22:38.862Z,3.88
2022-07-29T07:25:06.594Z,2.92
2022-07-29T07:27:33.382Z,2.90
2022-07-29T07:30:00.438Z,2.72
2022-07-29T07:32:27.386Z,2.30
2022-07-29T07:34:54.167Z,2.30
2022-07-29T07:37:21.643Z,2.65
2022-07-29T07:39:48.420Z,2.28
2022-07-29T07:42:15.266Z,2.40
2022-07-29T07:45:03.901Z,2.80
2022-07-29T07:47:28.962Z,2.22
2022-07-29T07:49:55.883Z,2.90
2022-07-29T07:52:23.457Z,2.97
2022-07-29T07:54:50.724Z,2.47
2022-07-29T07:57:17.897Z,2.97
2022-07-29T07:59:44.719Z,2.70
2022-07-29T08:02:11.745Z,2.92
2022-07-29T08:04:41.401Z,2.22
2022-07-29T08:07:09.906Z,2.90
2022-07-29T08:09:37.161Z,3.15
2022-07-29T08:12:05.468Z,2.10
2022-07-29T08:14:32.911Z,2.53
2022-07-29T08:16:59.845Z,2.63
2022-07-29T08:19:26.781Z,1.95
2022-07-29T08:21:54.951Z,2.10
2022-07-29T08:24:41.849Z,2.03
2022-07-29T08:27:26.898Z,2.42
2022-07-29T08:29:56.917Z,2.33
2022-07-29T08:32:50.856Z,2.88
2022-07-29T08:35:10.728Z,2.58
2022-07-29T08:37:37.552Z,2.47
2022-07-29T08:40:05.047Z,2.78
2022-07-29T08:42:31.882Z,2.50
2022-07-29T08:44:59.787Z,2.45
2022-07-29T08:47:28.900Z,3.92
2022-07-29T08:49:55.664Z,2.45
2022-07-29T08:52:23.221Z,2.70
2022-07-29T08:54:50.774Z,3.28
2022-07-29T08:57:18.324Z,3.40
2022-07-29T08:59:47.998Z,2.97
2022-07-29T09:02:22.094Z,2.97
2022-07-29T09:04:49.873Z,2.78
2022-07-29T09:07:18.702Z,2.85
2022-07-29T09:09:45.710Z,3.08
2022-07-29T09:12:13.237Z,2.83
2022-07-29T09:17:50.412Z,3.10
2022-07-29T09:20:25.436Z,2.88
2022-07-29T09:22:54.602Z,2.80
2022-07-29T09:25:39.209Z,3.30
2022-07-29T09:28:12.558Z,2.60
2022-07-29T09:30:57.540Z,2.70
2022-07-29T09:33:32.734Z,2.70
2022-07-29T09:36:10.555Z,2.80
2022-07-29T09:38:40.441Z,2.42
2022-07-29T09:41:09.744Z,2.47
2022-07-29T09:43:36.539Z,2.38
2022-07-29T09:46:14.034Z,2.30
2022-07-29T09:48:41.197Z,2.65
2022-07-29T09:51:26.942Z,2.30
2022-07-29T09:53:56.879Z,2.08
2022-07-29T09:56:43.502Z,2.20
2022-07-29T09:59:12.223Z,2.15
2022-07-29T10:01:39.167Z,2.20
2022-07-29T10:04:05.992Z,2.35
2022-07-29T10:06:32.857Z,3.03
2022-07-29T10:09:10.757Z,2.97
2022-07-29T10:11:49.288Z,2.38
2022-07-29T10:14:17.370Z,2.60
2022-07-29T10:16:44.554Z,2.42
2022-07-29T10:19:11.684Z,2.28
2022-07-29T10:21:40.825Z,3.10
2022-07-29T10:24:15.128Z,2.50
2022-07-29T10:26:42.946Z,2.78
2022-07-29T10:29:09.756Z,2.72
2022-07-29T10:32:18.818Z,2.08
2022-07-29T10:35:13.315Z,2.65
2022-07-29T10:38:05.489Z,2.50
2022-07-29T10:41:31.932Z,2.95
2022-07-29T10:44:08.184Z,2.47
2022-07-29T10:46:41.308Z,2.40
2022-07-29T10:49:30.301Z,2.67
2022-07-29T10:52:09.649Z,3.40
2022-07-29T10:54:37.467Z,3.30
2022-07-29T10:57:53.593Z,2.42
2022-07-29T11:00:17.035Z,3.38
2022-07-29T11:02:46.322Z,2.40
2022-07-29T11:05:21.894Z,3.67
2022-07-29T11:08:20.458Z,2.80
2022-07-29T11:10:52.820Z,2.35
2022-07-29T11:13:44.240Z,2.80
2022-07-29T11:16:11.247Z,2.85
2022-07-29T11:19:13.789Z,3.13
2022-07-29T11:21:53.848Z,2.85
2022-07-29T11:24:35.564Z,2.80
2022-07-29T11:27:22.042Z,2.88
2022-07-29T11:29:54.502Z,2.97
2022-07-29T11:32:25.278Z,2.70
2022-07-29T11:35:37.942Z,3.15
2022-07-29T11:38:29.169Z,2.17
2022-07-29T11:41:36.987Z,2.75
2022-07-29T11:44:04.329Z,2.47
2022-07-29T11:46:50.249Z,2.10
2022-07-29T11:52:15.271Z,2.80
2022-07-29T11:54:58.389Z,2.78
2022-07-29T11:57:35.946Z,2.70
2022-07-29T12:00:12.539Z,2.58
2022-07-29T12:02:44.037Z,2.25
2022-07-29T12:05:24.020Z,2.47
2022-07-29T12:08:20.270Z,2.50
2022-07-29T12:10:49.412Z,2.05
2022-07-29T12:13:19.333Z,2.75
2022-07-29T12:15:56.561Z,2.63
2022-07-29T12:18:27.900Z,2.05
2022-07-29T12:21:04.870Z,1.95
2022-07-29T12:23:35.718Z,1.83
2022-07-29T12:26:10.566Z,2.10
2022-07-29T12:28:39.711Z,2.00
2022-07-29T12:31:08.201Z,1.98
2022-07-29T12:33:36.126Z,2.45
2022-07-29T12:36:10.324Z,1.80
2022-07-29T12:38:41.406Z,2.30
2022-07-29T12:41:08.422Z,2.08
2022-07-29T12:43:35.224Z,2.25
2022-07-29T12:46:16.240Z,2.00
2022-07-29T12:48:44.801Z,1.70
2022-07-29T12:51:13.463Z,2.03
2022-07-29T12:53:40.587Z,1.83
2022-07-29T12:56:41.349Z,1.65
2022-07-29T12:59:23.569Z,1.65
2022-07-29T13:01:52.980Z,1.77
2022-07-29T13:04:30.611Z,2.03
2022-07-29T13:07:10.284Z,1.85
2022-07-29T13:09:46.650Z,1.92
2022-07-29T13:12:15.046Z,1.83
2022-07-29T13:14:44.361Z,1.88
2022-07-29T13:17:21.816Z,1.92
2022-07-29T13:19:54.575Z,1.65
2022-07-29T13:22:25.272Z,2.10
2022-07-29T13:24:54.055Z,2.65
2022-07-29T13:27:27.661Z,2.47
2022-07-29T13:29:57.707Z,2.78
2022-07-29T13:32:27.796Z,2.65
2022-07-29T13:34:57.749Z,2.88
2022-07-29T13:37:24.574Z,2.58
2022-07-29T13:39:52.945Z,2.45
2022-07-29T13:42:20.834Z,2.53
2022-07-29T13:44:49.772Z,2.75
2022-07-29T13:47:17.261Z,2.85
2022-07-29T13:49:44.087Z,2.30
2022-07-29T13:52:10.901Z,2.83
2022-07-29T13:54:42.080Z,3.05
2022-07-29T13:57:11.816Z,2.30
2022-07-29T13:59:40.305Z,2.42
2022-07-29T14:02:07.504Z,3.20
2022-07-29T14:04:34.754Z,2.67
2022-07-29T14:07:03.745Z,2.72
2022-07-29T14:09:37.464Z,2.88
2022-07-29T14:12:09.490Z,2.60
2022-07-29T14:14:37.789Z,2.80
2022-07-29T14:17:07.666Z,2.63
2022-07-29T14:19:39.458Z,2.92
2022-07-29T14:22:08.712Z,2.38
2022-07-29T14:24:37.810Z,2.38
2022-07-29T14:27:06.092Z,2.67
2022-07-29T14:29:37.073Z,2.40
2022-07-29T14:32:09.099Z,2.40
2022-07-29T14:34:37.869Z,3.10
2022-07-29T14:37:15.834Z,2.60
2022-07-29T14:39:43.453Z,2.20
2022-07-29T14:42:12.776Z,1.85
2022-07-29T14:44:42.546Z,2.03
2022-07-29T14:47:09.652Z,3.05
2022-07-29T14:49:36.725Z,2.13
2022-07-29T14:52:03.981Z,2.00
2022-07-29T14:54:30.780Z,1.50
2022-07-29T14:56:58.768Z,1.83
2022-07-29T14:59:27.002Z,2.03
2022-07-29T15:01:54.115Z,1.85
2022-07-29T15:04:21.476Z,2.35
2022-07-29T15:06:48.721Z,2.40
2022-07-29T15:09:15.565Z,2.30
2022-07-29T15:11:42.336Z,1.95
2022-07-29T15:14:09.353Z,2.70
2022-07-29T15:16:43.522Z,2.83
2022-07-29T15:19:10.790Z,2.38
2022-07-29T15:21:48.195Z,3.33
2022-07-29T15:24:20.095Z,2.40
2022-07-29T15:26:48.066Z,2.80
2022-07-29T15:29:15.835Z,3.00
2022-07-29T15:31:43.318Z,2.55
2022-07-29T15:34:10.383Z,3.13
2022-07-29T15:36:53.596Z,2.60
2022-07-29T15:39:22.926Z,3.50
2022-07-29T15:41:50.526Z,2.65
2022-07-29T15:44:17.620Z,2.78
2022-07-29T15:47:03.034Z,2.75
2022-07-29T15:49:47.111Z,3.17
2022-07-29T15:52:25.837Z,2.90
2022-07-29T15:54:57.787Z,3.10
2022-07-29T15:57:25.767Z,2.78
2022-07-29T15:59:53.060Z,3.38
2022-07-29T16:02:20.006Z,3.15
2022-07-29T16:04:47.330Z,3.38
2022-07-29T16:07:15.245Z,3.55
2022-07-29T16:09:43.003Z,3.25
2022-07-29T16:12:15.308Z,2.65
2022-07-29T16:14:43.973Z,2.95
2022-07-29T16:17:14.255Z,3.10
2022-07-29T16:19:45.456Z,2.80
2022-07-29T16:22:12.871Z,3.47
2022-07-29T16:24:39.949Z,2.63
2022-07-29T16:27:06.983Z,2.95
2022-07-29T16:29:33.824Z,3.22
2022-07-29T16:32:01.096Z,2.85
2022-07-29T16:34:27.986Z,2.50
2022-07-29T16:36:54.762Z,3.47
2022-07-29T16:39:21.721Z,2.88
2022-07-29T16:41:48.537Z,3.20
2022-07-29T16:44:18.188Z,3.20
2022-07-29T16:46:45.811Z,2.88
2022-07-29T16:49:18.391Z,2.60
2022-07-29T16:51:47.925Z,4.07
2022-07-29T16:54:14.851Z,2.70
2022-07-29T16:56:41.685Z,2.72
2022-07-29T16:59:08.556Z,2.60
2022-07-29T17:01:35.418Z,2.35
2022-07-29T17:04:08.432Z,2.67
2022-07-29T17:09:08.853Z,2.88
2022-07-29T17:11:52.326Z,2.85
2022-07-29T17:14:25.170Z,2.72
2022-07-29T17:17:00.953Z,3.17
2022-07-29T17:19:37.981Z,2.95
2022-07-29T17:22:15.672Z,3.15
2022-07-29T17:24:46.643Z,2.95
2022-07-29T17:27:13.925Z,2.75
2022-07-29T17:29:41.589Z,3.35
2022-07-29T17:32:09.647Z,2.83
2022-07-29T17:34:41.918Z,2.47
2022-07-29T17:37:10.867Z,3.15
2022-07-29T17:39:42.549Z,2.60
2022-07-29T17:42:12.989Z,2.78
2022-07-29T17:44:40.838Z,3.78
2022-07-29T17:47:15.650Z,3.15
2022-07-29T17:49:43.200Z,3.08
2022-07-29T17:52:10.293Z,3.08
2022-07-29T17:54:37.073Z,2.97
2022-07-29T17:57:04.018Z,3.30
2022-07-29T17:59:32.818Z,3.45
2022-07-29T18:01:59.701Z,3.72
2022-07-29T18:04:26.558Z,3.45
2022-07-29T18:06:53.900Z,3.33
2022-07-29T18:09:20.664Z,3.33
2022-07-29T18:11:48.899Z,3.38
2022-07-29T18:14:19.318Z,3.03
2022-07-29T18:16:47.227Z,3.58
2022-07-29T18:19:15.529Z,3.58
2022-07-29T18:21:51.253Z,3.30
2022-07-29T18:24:29.164Z,3.40
2022-07-29T18:26:56.852Z,3.92
2022-07-29T18:29:23.828Z,3.47
2022-07-29T18:31:50.806Z,3.88
2022-07-29T18:34:17.624Z,2.78
2022-07-29T18:36:54.654Z,3.63
2022-07-29T18:39:21.526Z,4.50
2022-07-29T18:41:51.421Z,3.38
2022-07-29T18:44:21.973Z,3.78
2022-07-29T18:46:55.891Z,3.28
2022-07-29T18:49:23.328Z,3.90
2022-07-29T18:51:50.605Z,3.95
2022-07-29T18:54:18.102Z,3.13
2022-07-29T18:56:46.412Z,4.68
2022-07-29T18:59:17.036Z,3.53
2022-07-29T19:01:44.604Z,3.38
2022-07-29T19:04:11.677Z,2.92
2022-07-29T19:06:38.937Z,3.78
2022-07-29T19:09:05.734Z,3.45
2022-07-29T19:11:32.568Z,3.78
2022-07-29T19:13:59.342Z,3.17
2022-07-29T19:16:26.232Z,4.03
2022-07-29T19:19:00.979Z,3.60
2022-07-29T19:21:28.359Z,3.63
2022-07-29T19:24:04.191Z,3.53
2022-07-29T19:26:36.723Z,3.30
2022-07-29T19:29:04.212Z,4.00
2022-07-29T19:31:31.109Z,3.45
2022-07-29T19:33:57.945Z,3.95
2022-07-29T19:36:24.793Z,3.40
2022-07-29T19:38:51.598Z,3.67
2022-07-29T19:41:18.438Z,4.18
2022-07-29T19:43:51.760Z,3.80
2022-07-29T19:46:24.256Z,3.53
2022-07-29T19:48:53.152Z,4.20
2022-07-29T19:51:20.004Z,3.58
2022-07-29T19:53:52.950Z,4.13
2022-07-29T19:56:19.901Z,3.55
2022-07-29T19:58:46.713Z,3.30
2022-07-29T20:01:14.542Z,5.50
2022-07-29T20:03:41.408Z,3.83
2022-07-29T20:06:08.700Z,5.07
2022-07-29T20:08:35.560Z,3.78
2022-07-29T20:11:02.976Z,3.90
2022-07-29T20:13:31.813Z,3.90
2022-07-29T20:15:59.202Z,4.25
2022-07-29T20:18:26.904Z,5.15
2022-07-29T20:20:54.098Z,3.38
2022-07-29T20:23:22.416Z,4.63
2022-07-29T20:25:50.070Z,4.60
2022-07-29T20:28:16.889Z,4.13
2022-07-29T20:30:43.810Z,3.67
2022-07-29T20:33:10.608Z,4.30
2022-07-29T20:35:37.492Z,3.75
2022-07-29T20:38:05.406Z,3.90
2022-07-29T20:40:32.231Z,3.85
2022-07-29T20:42:58.995Z,4.07
2022-07-29T20:45:26.109Z,4.30
2022-07-29T20:47:53.165Z,4.18
2022-07-29T20:50:23.596Z,3.95
2022-07-29T20:52:51.871Z,5.43
2022-07-29T20:55:18.886Z,3.92
2022-07-29T20:57:45.706Z,3.88
2022-07-29T21:00:13.117Z,4.35
2022-07-29T21:02:40.065Z,3.90
2022-07-29T21:05:07.140Z,4.72
2022-07-29T21:07:33.945Z,4.00
2022-07-29T21:10:00.720Z,4.25
2022-07-29T21:12:30.692Z,3.88
2022-07-29T21:14:57.923Z,4.25
2022-07-29T21:17:25.230Z,4.57
2022-07-29T21:19:53.392Z,3.55
2022-07-29T21:22:22.372Z,3.90
2022-07-29T21:24:50.134Z,4.32
2022-07-29T21:27:38.339Z,3.85
2022-07-29T21:30:10.520Z,4.00
2022-07-29T21:32:37.375Z,3.97
2022-07-29T21:35:18.218Z,3.65
2022-07-29T21:37:52.081Z,3.88
2022-07-29T21:40:19.014Z,4.20
2022-07-29T21:42:48.312Z,3.58
2022-07-29T21:45:16.665Z,4.07
2022-07-29T21:47:43.490Z,3.72
2022-07-29T21:50:10.335Z,3.85
2022-07-29T21:52:37.386Z,4.65
2022-07-29T21:55:04.685Z,4.28
2022-07-29T21:57:31.604Z,3.90
2022-07-29T22:00:02.505Z,3.83
2022-07-29T22:02:32.014Z,4.63
2022-07-29T22:04:58.825Z,3.60
2022-07-29T22:07:25.639Z,3.67
2022-07-29T22:10:12.498Z,3.30
2022-07-29T22:12:39.302Z,3.50
2022-07-29T22:15:07.202Z,3.42
2022-07-29T22:17:37.215Z,3.25
2022-07-29T22:20:05.649Z,3.13
2022-07-29T22:22:33.234Z,3.38
2022-07-29T22:25:00.167Z,3.58
2022-07-29T22:27:26.968Z,3.22
2022-07-29T22:29:53.813Z,2.78
2022-07-29T22:32:20.618Z,3.25
2022-07-29T22:34:47.714Z,2.90
2022-07-29T22:37:14.810Z,3.15
2022-07-29T22:39:41.595Z,3.65
2022-07-29T22:42:08.469Z,3.50
2022-07-29T22:44:35.412Z,2.92
2022-07-29T22:47:04.046Z,3.72
2022-07-29T22:49:36.981Z,3.05
2022-07-29T22:52:03.968Z,2.78
2022-07-29T22:54:30.732Z,3.35
2022-07-29T22:56:57.735Z,2.75
2022-07-29T22:59:24.615Z,3.63
2022-07-29T23:01:51.434Z,2.65
2022-07-29T23:04:18.212Z,3.58
2022-07-29T23:06:45.018Z,3.10
2022-07-29T23:09:11.789Z,2.95
2022-07-29T23:11:38.561Z,3.10
2022-07-29T23:14:05.352Z,2.78
2022-07-29T23:16:36.450Z,3.13
2022-07-29T23:19:38.324Z,3.20
2022-07-29T23:22:05.200Z,3.33
2022-07-29T23:24:31.957Z,3.70
2022-07-29T23:26:59.014Z,3.83
2022-07-29T23:29:26.504Z,3.35
2022-07-29T23:31:53.326Z,2.80
2022-07-29T23:34:20.158Z,2.92
2022-07-29T23:36:47.022Z,3.63
2022-07-29T23:39:13.900Z,3.03
2022-07-29T23:41:40.949Z,2.50
2022-07-29T23:44:26.931Z,4.03
2022-07-29T23:46:53.694Z,2.75
2022-07-29T23:49:20.468Z,3.58
2022-07-29T23:51:47.309Z,4.20
2022-07-29T23:54:14.198Z,3.03
2022-07-29T23:56:41.052Z,3.20
2022-07-29T23:59:07.877Z,3.75
